Terminal Aerodrome Forecast
Issued by NWS Wilmington, OH

Current Version | Previous Version | Graphics & Text | Print | Product List | Glossary On
Versions: 1 2 3 4 5 6 7 8 9 10 11 12 13 14 15 16 17
000
FTUS41 KILN 252332
TAFILN
TAF
KILN 252332Z 2600/2624 15005KT P6SM BKN050
     FM260300 13004KT P6SM SCT250
     FM261300 15008KT P6SM FEW250
     FM261600 17012KT P6SM FEW250=

USA.gov is the U.S. government's official web portal to all federal, state and local government web resources and services.